sensor_id;sensor_type;location;lat;lon;timestamp;P1;durP1;ratioP1;P2;durP2;ratioP2
11835;SDS011;5977;51.972;7.640;2023-02-19T00:01:49;149.07;;;47.70;;
11835;SDS011;5977;51.972;7.640;2023-02-19T00:04:19;148.70;;;47.60;;
11835;SDS011;5977;51.972;7.640;2023-02-19T00:06:48;149.07;;;47.70;;
11835;SDS011;5977;51.972;7.640;2023-02-19T00:09:17;149.07;;;47.73;;
11835;SDS011;5977;51.972;7.640;2023-02-19T00:11:46;149.57;;;47.77;;
11835;SDS011;5977;51.972;7.640;2023-02-19T00:14:16;149.60;;;47.73;;
11835;SDS011;5977;51.972;7.640;2023-02-19T00:16:46;149.40;;;47.83;;
11835;SDS011;5977;51.972;7.640;2023-02-19T00:19:15;148.93;;;47.40;;
11835;SDS011;5977;51.972;7.640;2023-02-19T00:21:44;149.77;;;48.07;;
11835;SDS011;5977;51.972;7.640;2023-02-19T00:24:13;149.30;;;47.63;;
11835;SDS011;5977;51.972;7.640;2023-02-19T00:26:41;149.00;;;47.73;;
11835;SDS011;5977;51.972;7.640;2023-02-19T00:29:11;149.50;;;48.00;;
11835;SDS011;5977;51.972;7.640;2023-02-19T00:31:42;149.03;;;47.83;;
11835;SDS011;5977;51.972;7.640;2023-02-19T00:34:11;148.97;;;47.73;;
11835;SDS011;5977;51.972;7.640;2023-02-19T00:36:40;148.77;;;47.50;;
11835;SDS011;5977;51.972;7.640;2023-02-19T00:39:10;150.33;;;48.17;;
11835;SDS011;5977;51.972;7.640;2023-02-19T00:41:40;149.97;;;47.87;;
11835;SDS011;5977;51.972;7.640;2023-02-19T00:44:09;149.50;;;47.80;;
11835;SDS011;5977;51.972;7.640;2023-02-19T00:46:39;149.30;;;47.67;;
11835;SDS011;5977;51.972;7.640;2023-02-19T00:49:12;149.83;;;47.90;;
11835;SDS011;5977;51.972;7.640;2023-02-19T00:51:42;149.73;;;47.90;;
11835;SDS011;5977;51.972;7.640;2023-02-19T00:54:10;149.20;;;47.60;;
11835;SDS011;5977;51.972;7.640;2023-02-19T00:56:39;149.73;;;47.90;;
11835;SDS011;5977;51.972;7.640;2023-02-19T00:59:07;150.20;;;48.00;;
11835;SDS011;5977;51.972;7.640;2023-02-19T01:01:36;150.37;;;48.17;;
11835;SDS011;5977;51.972;7.640;2023-02-19T01:04:04;149.57;;;47.80;;
11835;SDS011;5977;51.972;7.640;2023-02-19T01:06:34;150.43;;;48.03;;
11835;SDS011;5977;51.972;7.640;2023-02-19T01:09:02;150.93;;;48.27;;
11835;SDS011;5977;51.972;7.640;2023-02-19T01:11:30;151.33;;;48.53;;
11835;SDS011;5977;51.972;7.640;2023-02-19T01:13:59;150.47;;;48.10;;
11835;SDS011;5977;51.972;7.640;2023-02-19T01:16:27;151.83;;;48.60;;
11835;SDS011;5977;51.972;7.640;2023-02-19T01:18:56;151.57;;;48.60;;
11835;SDS011;5977;51.972;7.640;2023-02-19T01:21:25;151.13;;;48.30;;
11835;SDS011;5977;51.972;7.640;2023-02-19T01:23:56;149.43;;;47.90;;
11835;SDS011;5977;51.972;7.640;2023-02-19T01:26:26;150.00;;;47.83;;
11835;SDS011;5977;51.972;7.640;2023-02-19T01:28:55;149.77;;;48.00;;
11835;SDS011;5977;51.972;7.640;2023-02-19T01:31:25;150.13;;;48.13;;
11835;SDS011;5977;51.972;7.640;2023-02-19T01:33:54;150.03;;;47.93;;
11835;SDS011;5977;51.972;7.640;2023-02-19T01:36:24;150.40;;;48.27;;
11835;SDS011;5977;51.972;7.640;2023-02-19T01:38:52;150.47;;;48.03;;
11835;SDS011;5977;51.972;7.640;2023-02-19T01:41:23;151.40;;;48.60;;
11835;SDS011;5977;51.972;7.640;2023-02-19T01:43:56;151.10;;;48.30;;
11835;SDS011;5977;51.972;7.640;2023-02-19T01:46:26;150.53;;;48.03;;
11835;SDS011;5977;51.972;7.640;2023-02-19T01:48:56;152.00;;;48.70;;
11835;SDS011;5977;51.972;7.640;2023-02-19T01:51:26;150.57;;;48.33;;
11835;SDS011;5977;51.972;7.640;2023-02-19T01:53:57;150.83;;;48.10;;
11835;SDS011;5977;51.972;7.640;2023-02-19T01:56:29;149.90;;;47.87;;
11835;SDS011;5977;51.972;7.640;2023-02-19T01:58:59;149.80;;;48.07;;
11835;SDS011;5977;51.972;7.640;2023-02-19T02:01:27;150.77;;;48.30;;
11835;SDS011;5977;51.972;7.640;2023-02-19T02:03:55;150.30;;;48.13;;
11835;SDS011;5977;51.972;7.640;2023-02-19T02:06:24;150.90;;;48.40;;
11835;SDS011;5977;51.972;7.640;2023-02-19T02:08:57;150.03;;;47.90;;
11835;SDS011;5977;51.972;7.640;2023-02-19T02:11:46;150.37;;;48.20;;
11835;SDS011;5977;51.972;7.640;2023-02-19T02:14:15;150.60;;;48.13;;
11835;SDS011;5977;51.972;7.640;2023-02-19T02:16:48;151.10;;;48.30;;
11835;SDS011;5977;51.972;7.640;2023-02-19T02:19:29;150.10;;;47.83;;
11835;SDS011;5977;51.972;7.640;2023-02-19T02:22:06;150.23;;;47.90;;
11835;SDS011;5977;51.972;7.640;2023-02-19T02:24:49;149.70;;;47.77;;
11835;SDS011;5977;51.972;7.640;2023-02-19T02:27:57;150.60;;;48.07;;
11835;SDS011;5977;51.972;7.640;2023-02-19T02:30:38;150.13;;;47.87;;
11835;SDS011;5977;51.972;7.640;2023-02-19T02:33:15;150.07;;;47.97;;
11835;SDS011;5977;51.972;7.640;2023-02-19T02:35:50;149.47;;;47.67;;
11835;SDS011;5977;51.972;7.640;2023-02-19T02:38:21;150.50;;;48.17;;
11835;SDS011;5977;51.972;7.640;2023-02-19T02:40:52;150.83;;;48.13;;
11835;SDS011;5977;51.972;7.640;2023-02-19T02:43:22;150.30;;;48.00;;
11835;SDS011;5977;51.972;7.640;2023-02-19T02:45:51;150.90;;;48.10;;
11835;SDS011;5977;51.972;7.640;2023-02-19T02:48:31;149.90;;;47.83;;
11835;SDS011;5977;51.972;7.640;2023-02-19T02:51:03;150.93;;;48.17;;
11835;SDS011;5977;51.972;7.640;2023-02-19T02:53:43;151.30;;;48.30;;
11835;SDS011;5977;51.972;7.640;2023-02-19T02:56:31;150.57;;;48.00;;
11835;SDS011;5977;51.972;7.640;2023-02-19T02:59:02;151.67;;;48.47;;
11835;SDS011;5977;51.972;7.640;2023-02-19T03:01:36;150.87;;;48.13;;
11835;SDS011;5977;51.972;7.640;2023-02-19T03:04:26;150.33;;;47.97;;
11835;SDS011;5977;51.972;7.640;2023-02-19T03:07:00;150.30;;;48.10;;
11835;SDS011;5977;51.972;7.640;2023-02-19T03:09:36;150.40;;;48.10;;
11835;SDS011;5977;51.972;7.640;2023-02-19T03:12:09;150.77;;;48.10;;
11835;SDS011;5977;51.972;7.640;2023-02-19T03:15:01;150.13;;;48.00;;
11835;SDS011;5977;51.972;7.640;2023-02-19T03:17:53;149.93;;;47.83;;
11835;SDS011;5977;51.972;7.640;2023-02-19T03:20:45;150.67;;;48.10;;
11835;SDS011;5977;51.972;7.640;2023-02-19T03:23:18;150.47;;;48.00;;
11835;SDS011;5977;51.972;7.640;2023-02-19T03:26:08;150.10;;;47.87;;
11835;SDS011;5977;51.972;7.640;2023-02-19T03:28:41;150.73;;;48.13;;
11835;SDS011;5977;51.972;7.640;2023-02-19T03:31:29;149.63;;;47.60;;
11835;SDS011;5977;51.972;7.640;2023-02-19T03:34:02;150.70;;;48.00;;
11835;SDS011;5977;51.972;7.640;2023-02-19T03:36:35;151.60;;;48.47;;
11835;SDS011;5977;51.972;7.640;2023-02-19T03:39:08;151.20;;;48.53;;
11835;SDS011;5977;51.972;7.640;2023-02-19T03:41:40;150.87;;;48.20;;
11835;SDS011;5977;51.972;7.640;2023-02-19T03:44:16;151.40;;;48.30;;
11835;SDS011;5977;51.972;7.640;2023-02-19T03:46:47;151.43;;;48.40;;
11835;SDS011;5977;51.972;7.640;2023-02-19T03:49:23;150.63;;;48.13;;
11835;SDS011;5977;51.972;7.640;2023-02-19T03:51:56;151.67;;;48.60;;
11835;SDS011;5977;51.972;7.640;2023-02-19T03:54:36;149.70;;;47.73;;
11835;SDS011;5977;51.972;7.640;2023-02-19T03:57:13;150.93;;;48.30;;
11835;SDS011;5977;51.972;7.640;2023-02-19T03:59:47;151.23;;;48.30;;
11835;SDS011;5977;51.972;7.640;2023-02-19T04:02:26;151.30;;;48.30;;
11835;SDS011;5977;51.972;7.640;2023-02-19T04:05:03;152.73;;;49.33;;
11835;SDS011;5977;51.972;7.640;2023-02-19T04:07:40;154.37;;;50.80;;
11835;SDS011;5977;51.972;7.640;2023-02-19T04:10:13;153.17;;;51.37;;
11835;SDS011;5977;51.972;7.640;2023-02-19T04:12:47;151.73;;;48.53;;
11835;SDS011;5977;51.972;7.640;2023-02-19T04:15:20;155.33;;;52.40;;
11835;SDS011;5977;51.972;7.640;2023-02-19T04:17:53;150.47;;;48.23;;
11835;SDS011;5977;51.972;7.640;2023-02-19T04:20:26;149.97;;;48.07;;
11835;SDS011;5977;51.972;7.640;2023-02-19T04:22:58;149.00;;;47.80;;
11835;SDS011;5977;51.972;7.640;2023-02-19T04:25:26;149.37;;;47.90;;
11835;SDS011;5977;51.972;7.640;2023-02-19T04:27:55;149.67;;;48.07;;
11835;SDS011;5977;51.972;7.640;2023-02-19T04:30:24;149.00;;;47.73;;
11835;SDS011;5977;51.972;7.640;2023-02-19T04:32:52;149.03;;;47.80;;
11835;SDS011;5977;51.972;7.640;2023-02-19T04:35:19;149.47;;;47.90;;
11835;SDS011;5977;51.972;7.640;2023-02-19T04:37:49;148.50;;;47.43;;
11835;SDS011;5977;51.972;7.640;2023-02-19T04:40:17;148.93;;;47.77;;
11835;SDS011;5977;51.972;7.640;2023-02-19T04:42:45;148.10;;;47.30;;
11835;SDS011;5977;51.972;7.640;2023-02-19T04:45:13;149.67;;;48.00;;
11835;SDS011;5977;51.972;7.640;2023-02-19T04:47:41;149.83;;;47.97;;
11835;SDS011;5977;51.972;7.640;2023-02-19T04:50:09;150.27;;;48.27;;
11835;SDS011;5977;51.972;7.640;2023-02-19T04:52:37;149.87;;;47.87;;
11835;SDS011;5977;51.972;7.640;2023-02-19T04:55:07;148.80;;;47.63;;
11835;SDS011;5977;51.972;7.640;2023-02-19T04:57:35;149.00;;;47.77;;
11835;SDS011;5977;51.972;7.640;2023-02-19T05:00:03;148.80;;;47.80;;
11835;SDS011;5977;51.972;7.640;2023-02-19T05:02:33;149.70;;;48.07;;
11835;SDS011;5977;51.972;7.640;2023-02-19T05:05:01;149.87;;;48.10;;
11835;SDS011;5977;51.972;7.640;2023-02-19T05:07:29;150.07;;;48.23;;
11835;SDS011;5977;51.972;7.640;2023-02-19T05:09:57;149.47;;;47.83;;
11835;SDS011;5977;51.972;7.640;2023-02-19T05:12:26;148.83;;;47.83;;
11835;SDS011;5977;51.972;7.640;2023-02-19T05:14:56;149.07;;;47.63;;
11835;SDS011;5977;51.972;7.640;2023-02-19T05:17:24;149.33;;;47.97;;
11835;SDS011;5977;51.972;7.640;2023-02-19T05:19:52;148.53;;;47.53;;
11835;SDS011;5977;51.972;7.640;2023-02-19T05:22:19;148.83;;;47.73;;
11835;SDS011;5977;51.972;7.640;2023-02-19T05:24:47;148.87;;;47.77;;
11835;SDS011;5977;51.972;7.640;2023-02-19T05:27:15;148.87;;;47.63;;
11835;SDS011;5977;51.972;7.640;2023-02-19T05:29:44;148.90;;;47.77;;
11835;SDS011;5977;51.972;7.640;2023-02-19T05:32:12;148.93;;;47.57;;
11835;SDS011;5977;51.972;7.640;2023-02-19T05:34:44;147.97;;;47.33;;
11835;SDS011;5977;51.972;7.640;2023-02-19T05:37:12;148.07;;;47.37;;
11835;SDS011;5977;51.972;7.640;2023-02-19T05:39:40;148.60;;;47.60;;
11835;SDS011;5977;51.972;7.640;2023-02-19T05:42:07;148.40;;;47.63;;
11835;SDS011;5977;51.972;7.640;2023-02-19T05:44:35;149.03;;;47.73;;
11835;SDS011;5977;51.972;7.640;2023-02-19T05:47:05;148.17;;;47.47;;
11835;SDS011;5977;51.972;7.640;2023-02-19T05:49:32;149.30;;;47.80;;
11835;SDS011;5977;51.972;7.640;2023-02-19T05:52:00;147.83;;;47.37;;
11835;SDS011;5977;51.972;7.640;2023-02-19T05:54:28;149.27;;;48.07;;
11835;SDS011;5977;51.972;7.640;2023-02-19T05:56:56;148.87;;;47.67;;
11835;SDS011;5977;51.972;7.640;2023-02-19T05:59:24;148.60;;;47.57;;
11835;SDS011;5977;51.972;7.640;2023-02-19T06:01:53;148.63;;;47.60;;
11835;SDS011;5977;51.972;7.640;2023-02-19T06:04:24;148.00;;;47.40;;
11835;SDS011;5977;51.972;7.640;2023-02-19T06:06:52;149.07;;;47.73;;
11835;SDS011;5977;51.972;7.640;2023-02-19T06:09:20;148.83;;;47.70;;
11835;SDS011;5977;51.972;7.640;2023-02-19T06:11:48;147.83;;;47.20;;
11835;SDS011;5977;51.972;7.640;2023-02-19T06:14:16;148.30;;;47.57;;
11835;SDS011;5977;51.972;7.640;2023-02-19T06:16:44;148.83;;;47.70;;
11835;SDS011;5977;51.972;7.640;2023-02-19T06:19:12;147.90;;;47.33;;
11835;SDS011;5977;51.972;7.640;2023-02-19T06:21:41;147.33;;;47.00;;
11835;SDS011;5977;51.972;7.640;2023-02-19T06:24:09;148.23;;;47.50;;
11835;SDS011;5977;51.972;7.640;2023-02-19T06:26:37;148.07;;;47.40;;
11835;SDS011;5977;51.972;7.640;2023-02-19T06:29:05;147.80;;;47.23;;
11835;SDS011;5977;51.972;7.640;2023-02-19T06:31:32;148.33;;;47.40;;
11835;SDS011;5977;51.972;7.640;2023-02-19T06:34:02;147.63;;;47.30;;
11835;SDS011;5977;51.972;7.640;2023-02-19T06:36:30;148.10;;;47.40;;
11835;SDS011;5977;51.972;7.640;2023-02-19T06:39:00;148.47;;;47.70;;
11835;SDS011;5977;51.972;7.640;2023-02-19T06:41:28;148.47;;;47.57;;
11835;SDS011;5977;51.972;7.640;2023-02-19T06:43:56;148.00;;;47.47;;
11835;SDS011;5977;51.972;7.640;2023-02-19T06:46:24;148.07;;;47.57;;
11835;SDS011;5977;51.972;7.640;2023-02-19T06:48:52;148.30;;;47.60;;
11835;SDS011;5977;51.972;7.640;2023-02-19T06:51:20;148.27;;;47.50;;
11835;SDS011;5977;51.972;7.640;2023-02-19T06:53:49;148.00;;;47.40;;
11835;SDS011;5977;51.972;7.640;2023-02-19T06:56:23;147.17;;;47.03;;
11835;SDS011;5977;51.972;7.640;2023-02-19T06:58:53;148.13;;;47.47;;
11835;SDS011;5977;51.972;7.640;2023-02-19T07:01:22;147.27;;;47.20;;
11835;SDS011;5977;51.972;7.640;2023-02-19T07:03:50;146.90;;;46.97;;
11835;SDS011;5977;51.972;7.640;2023-02-19T07:06:19;147.30;;;47.20;;
11835;SDS011;5977;51.972;7.640;2023-02-19T07:08:47;147.03;;;47.10;;
11835;SDS011;5977;51.972;7.640;2023-02-19T07:11:15;147.20;;;47.10;;
11835;SDS011;5977;51.972;7.640;2023-02-19T07:13:46;147.20;;;47.13;;
11835;SDS011;5977;51.972;7.640;2023-02-19T07:16:13;147.43;;;47.27;;
11835;SDS011;5977;51.972;7.640;2023-02-19T07:18:43;147.37;;;47.20;;
11835;SDS011;5977;51.972;7.640;2023-02-19T07:21:11;147.57;;;47.23;;
11835;SDS011;5977;51.972;7.640;2023-02-19T07:23:40;147.70;;;47.37;;
11835;SDS011;5977;51.972;7.640;2023-02-19T07:26:09;147.00;;;47.00;;
11835;SDS011;5977;51.972;7.640;2023-02-19T07:28:38;147.00;;;47.00;;
11835;SDS011;5977;51.972;7.640;2023-02-19T07:31:08;147.43;;;47.17;;
11835;SDS011;5977;51.972;7.640;2023-02-19T07:33:37;147.00;;;47.00;;
11835;SDS011;5977;51.972;7.640;2023-02-19T07:36:05;147.77;;;47.40;;
11835;SDS011;5977;51.972;7.640;2023-02-19T07:38:34;147.40;;;47.20;;
11835;SDS011;5977;51.972;7.640;2023-02-19T07:41:02;146.77;;;46.97;;
11835;SDS011;5977;51.972;7.640;2023-02-19T07:43:32;147.60;;;47.30;;
11835;SDS011;5977;51.972;7.640;2023-02-19T07:46:01;147.10;;;47.20;;
11835;SDS011;5977;51.972;7.640;2023-02-19T07:48:32;147.93;;;47.47;;
11835;SDS011;5977;51.972;7.640;2023-02-19T07:51:00;147.70;;;47.40;;
11835;SDS011;5977;51.972;7.640;2023-02-19T07:53:29;147.60;;;47.27;;
11835;SDS011;5977;51.972;7.640;2023-02-19T07:55:58;147.33;;;47.20;;
11835;SDS011;5977;51.972;7.640;2023-02-19T07:58:27;146.80;;;47.00;;
11835;SDS011;5977;51.972;7.640;2023-02-19T08:00:55;147.57;;;47.27;;
11835;SDS011;5977;51.972;7.640;2023-02-19T08:03:23;146.93;;;47.10;;
11835;SDS011;5977;51.972;7.640;2023-02-19T08:05:52;146.83;;;47.17;;
11835;SDS011;5977;51.972;7.640;2023-02-19T08:08:20;146.87;;;47.17;;
11835;SDS011;5977;51.972;7.640;2023-02-19T08:10:48;146.17;;;46.93;;
11835;SDS011;5977;51.972;7.640;2023-02-19T08:13:33;145.57;;;46.63;;
11835;SDS011;5977;51.972;7.640;2023-02-19T08:16:09;146.50;;;46.90;;
11835;SDS011;5977;51.972;7.640;2023-02-19T08:18:52;146.30;;;46.90;;
11835;SDS011;5977;51.972;7.640;2023-02-19T08:21:21;145.33;;;46.50;;
11835;SDS011;5977;51.972;7.640;2023-02-19T08:23:49;145.57;;;46.60;;
11835;SDS011;5977;51.972;7.640;2023-02-19T08:26:17;145.90;;;46.77;;
11835;SDS011;5977;51.972;7.640;2023-02-19T08:28:45;145.87;;;46.90;;
11835;SDS011;5977;51.972;7.640;2023-02-19T08:31:14;145.30;;;46.60;;
11835;SDS011;5977;51.972;7.640;2023-02-19T08:33:42;145.67;;;46.73;;
11835;SDS011;5977;51.972;7.640;2023-02-19T08:36:11;145.80;;;46.80;;
11835;SDS011;5977;51.972;7.640;2023-02-19T08:38:40;145.40;;;46.67;;
11835;SDS011;5977;51.972;7.640;2023-02-19T08:41:08;145.53;;;46.73;;
11835;SDS011;5977;51.972;7.640;2023-02-19T08:43:38;145.93;;;46.83;;
11835;SDS011;5977;51.972;7.640;2023-02-19T08:46:07;146.10;;;46.80;;
11835;SDS011;5977;51.972;7.640;2023-02-19T08:48:36;145.73;;;46.67;;
11835;SDS011;5977;51.972;7.640;2023-02-19T08:51:05;145.63;;;46.63;;
11835;SDS011;5977;51.972;7.640;2023-02-19T08:53:36;146.23;;;46.93;;
11835;SDS011;5977;51.972;7.640;2023-02-19T08:56:08;145.47;;;46.53;;
11835;SDS011;5977;51.972;7.640;2023-02-19T08:58:41;146.03;;;46.77;;
11835;SDS011;5977;51.972;7.640;2023-02-19T09:01:10;146.00;;;46.80;;
11835;SDS011;5977;51.972;7.640;2023-02-19T09:03:41;146.27;;;46.87;;
11835;SDS011;5977;51.972;7.640;2023-02-19T09:06:12;146.27;;;46.83;;
11835;SDS011;5977;51.972;7.640;2023-02-19T09:08:48;145.43;;;46.53;;
11835;SDS011;5977;51.972;7.640;2023-02-19T09:11:18;145.33;;;46.57;;
11835;SDS011;5977;51.972;7.640;2023-02-19T09:13:46;145.70;;;46.70;;
11835;SDS011;5977;51.972;7.640;2023-02-19T09:16:15;145.47;;;46.57;;
11835;SDS011;5977;51.972;7.640;2023-02-19T09:18:45;145.63;;;46.60;;
11835;SDS011;5977;51.972;7.640;2023-02-19T09:21:22;145.10;;;46.40;;
11835;SDS011;5977;51.972;7.640;2023-02-19T09:23:56;145.27;;;46.47;;
11835;SDS011;5977;51.972;7.640;2023-02-19T09:26:27;145.57;;;46.60;;
11835;SDS011;5977;51.972;7.640;2023-02-19T09:28:55;145.40;;;46.63;;
11835;SDS011;5977;51.972;7.640;2023-02-19T09:31:23;145.53;;;46.60;;
11835;SDS011;5977;51.972;7.640;2023-02-19T09:33:51;145.17;;;46.60;;
11835;SDS011;5977;51.972;7.640;2023-02-19T09:36:20;145.67;;;46.77;;
11835;SDS011;5977;51.972;7.640;2023-02-19T09:38:48;145.70;;;46.73;;
11835;SDS011;5977;51.972;7.640;2023-02-19T09:41:19;144.80;;;46.27;;
11835;SDS011;5977;51.972;7.640;2023-02-19T09:43:54;145.30;;;46.50;;
11835;SDS011;5977;51.972;7.640;2023-02-19T09:46:26;145.23;;;46.50;;
11835;SDS011;5977;51.972;7.640;2023-02-19T09:48:58;145.30;;;46.70;;
11835;SDS011;5977;51.972;7.640;2023-02-19T09:51:33;145.57;;;46.70;;
11835;SDS011;5977;51.972;7.640;2023-02-19T09:54:05;145.53;;;46.63;;
11835;SDS011;5977;51.972;7.640;2023-02-19T09:56:43;145.40;;;46.70;;
11835;SDS011;5977;51.972;7.640;2023-02-19T09:59:15;146.10;;;46.90;;
11835;SDS011;5977;51.972;7.640;2023-02-19T10:01:48;146.00;;;47.00;;
11835;SDS011;5977;51.972;7.640;2023-02-19T10:04:22;146.27;;;46.87;;
11835;SDS011;5977;51.972;7.640;2023-02-19T10:06:51;146.53;;;47.00;;
11835;SDS011;5977;51.972;7.640;2023-02-19T10:09:28;146.43;;;47.10;;
11835;SDS011;5977;51.972;7.640;2023-02-19T10:11:58;145.93;;;46.80;;
11835;SDS011;5977;51.972;7.640;2023-02-19T10:14:31;145.60;;;46.77;;
11835;SDS011;5977;51.972;7.640;2023-02-19T10:17:04;145.83;;;46.77;;
11835;SDS011;5977;51.972;7.640;2023-02-19T10:19:34;145.63;;;46.80;;
11835;SDS011;5977;51.972;7.640;2023-02-19T10:22:04;146.17;;;47.00;;
11835;SDS011;5977;51.972;7.640;2023-02-19T10:24:37;146.10;;;46.87;;
11835;SDS011;5977;51.972;7.640;2023-02-19T10:27:10;146.30;;;47.07;;
11835;SDS011;5977;51.972;7.640;2023-02-19T10:29:40;145.97;;;46.90;;
11835;SDS011;5977;51.972;7.640;2023-02-19T10:32:14;145.27;;;46.60;;
11835;SDS011;5977;51.972;7.640;2023-02-19T10:34:48;145.63;;;46.83;;
11835;SDS011;5977;51.972;7.640;2023-02-19T10:37:40;145.47;;;46.70;;
11835;SDS011;5977;51.972;7.640;2023-02-19T10:40:13;145.43;;;46.77;;
11835;SDS011;5977;51.972;7.640;2023-02-19T10:42:44;145.60;;;46.77;;
11835;SDS011;5977;51.972;7.640;2023-02-19T10:45:20;144.77;;;46.37;;
11835;SDS011;5977;51.972;7.640;2023-02-19T10:47:55;145.17;;;46.67;;
11835;SDS011;5977;51.972;7.640;2023-02-19T10:50:25;145.97;;;47.00;;
11835;SDS011;5977;51.972;7.640;2023-02-19T10:52:57;145.03;;;46.67;;
11835;SDS011;5977;51.972;7.640;2023-02-19T10:55:28;145.83;;;46.83;;
11835;SDS011;5977;51.972;7.640;2023-02-19T10:58:19;145.47;;;46.80;;
11835;SDS011;5977;51.972;7.640;2023-02-19T11:01:10;145.63;;;46.70;;
11835;SDS011;5977;51.972;7.640;2023-02-19T11:03:42;145.20;;;46.60;;
11835;SDS011;5977;51.972;7.640;2023-02-19T11:06:12;145.57;;;46.67;;
11835;SDS011;5977;51.972;7.640;2023-02-19T11:08:47;146.00;;;46.90;;
11835;SDS011;5977;51.972;7.640;2023-02-19T11:11:31;145.90;;;46.97;;
11835;SDS011;5977;51.972;7.640;2023-02-19T11:14:03;145.97;;;46.80;;
11835;SDS011;5977;51.972;7.640;2023-02-19T11:16:42;145.80;;;46.73;;
11835;SDS011;5977;51.972;7.640;2023-02-19T11:19:30;145.30;;;46.63;;
11835;SDS011;5977;51.972;7.640;2023-02-19T11:22:17;145.03;;;46.40;;
11835;SDS011;5977;51.972;7.640;2023-02-19T11:24:47;146.13;;;47.00;;
11835;SDS011;5977;51.972;7.640;2023-02-19T11:27:23;146.30;;;46.87;;
11835;SDS011;5977;51.972;7.640;2023-02-19T11:29:52;146.43;;;46.97;;
11835;SDS011;5977;51.972;7.640;2023-02-19T11:32:28;146.00;;;46.77;;
11835;SDS011;5977;51.972;7.640;2023-02-19T11:35:14;145.80;;;46.67;;
11835;SDS011;5977;51.972;7.640;2023-02-19T11:37:54;146.63;;;47.10;;
11835;SDS011;5977;51.972;7.640;2023-02-19T11:40:33;147.03;;;47.10;;
11835;SDS011;5977;51.972;7.640;2023-02-19T11:43:13;147.50;;;47.30;;
11835;SDS011;5977;51.972;7.640;2023-02-19T11:45:56;146.47;;;47.00;;
11835;SDS011;5977;51.972;7.640;2023-02-19T11:48:44;146.63;;;46.93;;
11835;SDS011;5977;51.972;7.640;2023-02-19T11:51:31;146.93;;;47.10;;
11835;SDS011;5977;51.972;7.640;2023-02-19T11:54:25;145.97;;;46.87;;
11835;SDS011;5977;51.972;7.640;2023-02-19T11:57:21;146.03;;;46.90;;
11835;SDS011;5977;51.972;7.640;2023-02-19T12:00:11;146.60;;;47.10;;
11835;SDS011;5977;51.972;7.640;2023-02-19T12:05:49;146.77;;;47.07;;
11835;SDS011;5977;51.972;7.640;2023-02-19T12:08:49;147.30;;;47.20;;
11835;SDS011;5977;51.972;7.640;2023-02-19T12:11:37;146.17;;;46.87;;
11835;SDS011;5977;51.972;7.640;2023-02-19T12:17:29;146.77;;;47.07;;
11835;SDS011;5977;51.972;7.640;2023-02-19T12:20:11;146.80;;;47.17;;
11835;SDS011;5977;51.972;7.640;2023-02-19T12:22:48;146.93;;;47.13;;
11835;SDS011;5977;51.972;7.640;2023-02-19T12:25:28;147.33;;;47.33;;
11835;SDS011;5977;51.972;7.640;2023-02-19T12:28:11;147.17;;;47.17;;
11835;SDS011;5977;51.972;7.640;2023-02-19T12:31:15;146.30;;;47.00;;
11835;SDS011;5977;51.972;7.640;2023-02-19T12:37:09;147.03;;;47.17;;
11835;SDS011;5977;51.972;7.640;2023-02-19T12:39:51;147.03;;;47.13;;
11835;SDS011;5977;51.972;7.640;2023-02-19T12:42:32;146.23;;;46.87;;
11835;SDS011;5977;51.972;7.640;2023-02-19T12:45:17;145.77;;;46.67;;
11835;SDS011;5977;51.972;7.640;2023-02-19T12:47:52;146.53;;;46.97;;
11835;SDS011;5977;51.972;7.640;2023-02-19T12:50:26;146.63;;;47.00;;
11835;SDS011;5977;51.972;7.640;2023-02-19T12:52:56;147.17;;;47.20;;
11835;SDS011;5977;51.972;7.640;2023-02-19T12:55:31;146.73;;;47.10;;
11835;SDS011;5977;51.972;7.640;2023-02-19T12:58:03;146.83;;;47.13;;
11835;SDS011;5977;51.972;7.640;2023-02-19T13:00:36;146.67;;;47.00;;
11835;SDS011;5977;51.972;7.640;2023-02-19T13:03:09;147.40;;;47.30;;
11835;SDS011;5977;51.972;7.640;2023-02-19T13:05:48;146.33;;;47.07;;
11835;SDS011;5977;51.972;7.640;2023-02-19T13:08:22;146.87;;;47.17;;
11835;SDS011;5977;51.972;7.640;2023-02-19T13:11:04;146.80;;;47.10;;
11835;SDS011;5977;51.972;7.640;2023-02-19T13:13:42;147.17;;;47.20;;
11835;SDS011;5977;51.972;7.640;2023-02-19T13:16:17;146.97;;;47.23;;
11835;SDS011;5977;51.972;7.640;2023-02-19T13:18:49;146.97;;;47.20;;
11835;SDS011;5977;51.972;7.640;2023-02-19T13:21:21;147.10;;;47.17;;
11835;SDS011;5977;51.972;7.640;2023-02-19T13:24:14;147.50;;;47.33;;
11835;SDS011;5977;51.972;7.640;2023-02-19T13:26:57;146.67;;;47.00;;
11835;SDS011;5977;51.972;7.640;2023-02-19T13:29:49;146.53;;;47.03;;
11835;SDS011;5977;51.972;7.640;2023-02-19T13:32:28;146.70;;;47.10;;
11835;SDS011;5977;51.972;7.640;2023-02-19T13:35:25;147.37;;;47.33;;
11835;SDS011;5977;51.972;7.640;2023-02-19T13:38:10;147.20;;;47.27;;
11835;SDS011;5977;51.972;7.640;2023-02-19T13:40:41;147.50;;;47.33;;
11835;SDS011;5977;51.972;7.640;2023-02-19T13:43:22;148.17;;;47.63;;
11835;SDS011;5977;51.972;7.640;2023-02-19T13:45:53;147.33;;;47.40;;
11835;SDS011;5977;51.972;7.640;2023-02-19T13:48:27;147.57;;;47.47;;
11835;SDS011;5977;51.972;7.640;2023-02-19T13:54:18;147.30;;;47.30;;
11835;SDS011;5977;51.972;7.640;2023-02-19T13:56:58;146.97;;;47.20;;
11835;SDS011;5977;51.972;7.640;2023-02-19T13:59:53;147.17;;;47.20;;
11835;SDS011;5977;51.972;7.640;2023-02-19T14:05:02;146.73;;;47.10;;
11835;SDS011;5977;51.972;7.640;2023-02-19T14:16:32;147.63;;;47.40;;
11835;SDS011;5977;51.972;7.640;2023-02-19T14:25:39;146.47;;;47.13;;
11835;SDS011;5977;51.972;7.640;2023-02-19T14:28:20;146.47;;;46.83;;
11835;SDS011;5977;51.972;7.640;2023-02-19T14:30:56;147.00;;;47.23;;
11835;SDS011;5977;51.972;7.640;2023-02-19T14:33:30;146.70;;;47.10;;
11835;SDS011;5977;51.972;7.640;2023-02-19T14:36:08;146.97;;;47.27;;
11835;SDS011;5977;51.972;7.640;2023-02-19T14:38:47;146.53;;;47.00;;
11835;SDS011;5977;51.972;7.640;2023-02-19T14:41:20;147.07;;;47.20;;
11835;SDS011;5977;51.972;7.640;2023-02-19T14:43:50;147.70;;;47.60;;
11835;SDS011;5977;51.972;7.640;2023-02-19T14:46:23;146.30;;;47.03;;
11835;SDS011;5977;51.972;7.640;2023-02-19T14:49:00;147.70;;;47.60;;
11835;SDS011;5977;51.972;7.640;2023-02-19T14:51:38;147.60;;;47.50;;
11835;SDS011;5977;51.972;7.640;2023-02-19T14:54:11;146.27;;;46.97;;
11835;SDS011;5977;51.972;7.640;2023-02-19T14:56:44;146.87;;;47.17;;
11835;SDS011;5977;51.972;7.640;2023-02-19T14:59:24;146.67;;;47.17;;
11835;SDS011;5977;51.972;7.640;2023-02-19T15:01:54;146.80;;;47.13;;
11835;SDS011;5977;51.972;7.640;2023-02-19T15:04:25;146.87;;;47.17;;
11835;SDS011;5977;51.972;7.640;2023-02-19T15:06:58;147.07;;;47.27;;
11835;SDS011;5977;51.972;7.640;2023-02-19T15:09:32;147.03;;;47.40;;
11835;SDS011;5977;51.972;7.640;2023-02-19T15:12:06;147.23;;;47.40;;
11835;SDS011;5977;51.972;7.640;2023-02-19T15:18:39;146.40;;;47.07;;
11835;SDS011;5977;51.972;7.640;2023-02-19T15:21:17;147.17;;;47.20;;
11835;SDS011;5977;51.972;7.640;2023-02-19T15:23:50;146.90;;;47.10;;
11835;SDS011;5977;51.972;7.640;2023-02-19T15:26:23;147.10;;;47.30;;
11835;SDS011;5977;51.972;7.640;2023-02-19T15:28:59;146.23;;;47.00;;
11835;SDS011;5977;51.972;7.640;2023-02-19T15:31:32;146.90;;;47.20;;